Terminal Aerodrome Forecast
Issued by NWS Omaha/Valley, NE

Home | Current Version | Previous Version | Text Only | Print | Product List | Glossary Off
Versions: 1 2 3 4 5 6 7 8 9 10 11 12 13 14 15 16 17 18 19 20 21 22 23 24 25 26 27 28 29 30 31 32 33 34 35 36 37

000
FTUS43 KOAX 262321
TAFOFK
TAF
KOFK 262321Z 2700/2724 01011KT 3SM -RASN BR OVC015
      TEMPO 2700/2701 2SM -SN BR OVC007
     FM270300 36009KT 5SM BR OVC025
     FM270800 01004KT P6SM BKN150
     FM271600 18010KT P6SM BKN120=

USA.gov is the U.S. government's official web portal to all federal, state and local government web resources and services.